createdAt,value
2018-12-25T00:02:01.102Z,19.03
2018-12-25T00:04:50.671Z,24.13
2018-12-25T00:07:22.769Z,20.47
2018-12-25T00:09:53.290Z,16.70
2018-12-25T00:12:24.107Z,16.47
2018-12-25T00:14:54.840Z,17.57
2018-12-25T00:17:44.403Z,14.47
2018-12-25T00:23:17.487Z,18.23
2018-12-25T00:25:48.104Z,19.20
2018-12-25T00:28:39.246Z,22.33
2018-12-25T00:33:55.426Z,21.07
2018-12-25T00:36:45.304Z,25.13
2018-12-25T00:39:27.531Z,20.87
2018-12-25T00:42:11.715Z,18.37
2018-12-25T00:44:55.960Z,25.20
2018-12-25T00:47:41.916Z,21.43
2018-12-25T00:50:12.539Z,27.30
2018-12-25T00:53:02.467Z,28.33
2018-12-25T00:55:44.959Z,24.52
2018-12-25T00:58:29.431Z,28.83
2018-12-25T01:00:59.941Z,24.55
2018-12-25T01:03:49.568Z,20.33
2018-12-25T01:06:31.599Z,18.83
2018-12-25T01:09:02.144Z,25.33
2018-12-25T01:11:34.201Z,23.70
2018-12-25T01:14:04.826Z,20.03
2018-12-25T01:16:54.374Z,25.80
2018-12-25T01:19:25.316Z,20.07
2018-12-25T01:22:14.882Z,25.07
2018-12-25T01:24:45.574Z,18.60
2018-12-25T01:27:17.039Z,19.07
2018-12-25T01:30:06.710Z,17.90
2018-12-25T01:32:38.820Z,17.37
2018-12-25T01:35:10.691Z,18.55
2018-12-25T01:37:41.294Z,23.47
2018-12-25T01:40:30.895Z,18.80
2018-12-25T01:43:01.383Z,22.57
2018-12-25T01:45:51.083Z,17.73
2018-12-25T01:48:41.876Z,18.43
2018-12-25T01:51:12.450Z,22.13
2018-12-25T01:54:02.524Z,19.73
2018-12-25T01:56:52.107Z,17.63
2018-12-25T01:59:34.688Z,24.40
2018-12-25T02:02:06.678Z,26.70
2018-12-25T02:04:38.820Z,22.10
2018-12-25T02:07:22.727Z,19.50
2018-12-25T02:10:05.027Z,27.53
2018-12-25T02:15:25.163Z,18.33
2018-12-25T02:18:07.692Z,18.07
2018-12-25T02:20:50.299Z,19.10
2018-12-25T02:23:32.638Z,25.60
2018-12-25T02:26:03.810Z,17.37
2018-12-25T02:28:53.613Z,27.50
2018-12-25T02:31:43.552Z,19.37
2018-12-25T02:34:33.116Z,20.33
2018-12-25T02:37:15.671Z,18.70
2018-12-25T02:39:58.153Z,16.70
2018-12-25T02:42:30.064Z,16.53
2018-12-25T02:45:19.639Z,27.07
2018-12-25T02:47:52.080Z,32.73
2018-12-25T02:53:12.721Z,22.73
2018-12-25T02:56:04.291Z,21.93
2018-12-25T02:58:35.159Z,22.53
2018-12-25T03:01:24.841Z,22.87
2018-12-25T03:03:55.327Z,23.13
2018-12-25T03:06:45.071Z,26.80
2018-12-25T03:09:17.109Z,24.23
2018-12-25T03:11:48.051Z,25.40
2018-12-25T03:14:37.705Z,17.77
2018-12-25T03:17:27.668Z,25.87
2018-12-25T03:22:50.070Z,19.17
2018-12-25T03:25:20.536Z,19.53
2018-12-25T03:28:10.518Z,18.13
2018-12-25T03:31:00.788Z,22.27
2018-12-25T03:33:31.530Z,20.70
2018-12-25T03:36:01.991Z,26.40
2018-12-25T03:38:32.559Z,15.37
2018-12-25T03:41:24.682Z,17.30
2018-12-25T03:43:55.734Z,21.17
2018-12-25T03:46:45.315Z,23.73
2018-12-25T03:49:27.976Z,19.93
2018-12-25T03:51:59.087Z,13.80
2018-12-25T03:54:29.853Z,15.50
2018-12-25T03:57:00.358Z,14.23
2018-12-25T04:02:52.177Z,15.80
2018-12-25T04:05:23.046Z,14.00
2018-12-25T04:07:57.227Z,21.33
2018-12-25T04:10:47.403Z,17.47
2018-12-25T04:13:38.236Z,17.17
2018-12-25T04:19:05.101Z,15.17
2018-12-25T04:21:47.637Z,20.73
2018-12-25T04:24:18.243Z,21.57
2018-12-25T04:26:48.860Z,16.80
2018-12-25T04:29:19.684Z,18.47
2018-12-25T04:32:09.255Z,16.93
2018-12-25T04:34:58.846Z,13.70
2018-12-25T04:40:27.017Z,19.63
2018-12-25T04:42:57.515Z,16.97
2018-12-25T04:45:47.474Z,14.80
2018-12-25T04:48:18.218Z,17.57
2018-12-25T04:50:48.691Z,15.60
2018-12-25T04:53:20.804Z,12.43
2018-12-25T04:56:05.072Z,13.53
2018-12-25T04:58:48.495Z,15.87
2018-12-25T05:01:30.702Z,13.37
2018-12-25T05:04:01.838Z,13.57
2018-12-25T05:06:54.533Z,19.27
2018-12-25T05:09:25.560Z,27.27
2018-12-25T05:15:04.652Z,16.37
2018-12-25T05:17:46.753Z,14.70
2018-12-25T05:20:17.192Z,15.77
2018-12-25T05:22:47.864Z,18.27
2018-12-25T05:25:19.038Z,19.10
2018-12-25T05:28:08.607Z,10.67
2018-12-25T05:30:58.203Z,18.70
2018-12-25T05:33:30.248Z,15.00
2018-12-25T05:36:02.334Z,19.07
2018-12-25T05:38:33.633Z,17.53
2018-12-25T05:41:23.184Z,12.63
2018-12-25T05:43:54.182Z,11.03
2018-12-25T05:46:44.476Z,12.20
2018-12-25T05:49:34.405Z,18.07
2018-12-25T05:52:24.218Z,14.63
2018-12-25T05:55:15.347Z,19.97
2018-12-25T05:57:46.075Z,17.20
2018-12-25T06:00:36.602Z,14.80
2018-12-25T06:03:07.182Z,17.87
2018-12-25T06:05:37.754Z,14.37
2018-12-25T06:08:08.170Z,18.45
2018-12-25T06:10:51.697Z,17.77
2018-12-25T06:13:35.723Z,17.60
2018-12-25T06:16:06.578Z,14.20
2018-12-25T06:18:37.258Z,19.07
2018-12-25T06:21:26.924Z,18.20
2018-12-25T06:24:28.883Z,15.50
2018-12-25T06:26:59.742Z,18.27
2018-12-25T06:29:30.219Z,20.48
2018-12-25T06:32:19.783Z,18.90
2018-12-25T06:34:50.679Z,12.90
2018-12-25T06:37:21.881Z,17.80
2018-12-25T06:39:52.354Z,17.67
2018-12-25T06:42:22.974Z,19.20
2018-12-25T06:44:56.286Z,17.50
2018-12-25T06:47:46.420Z,16.97
2018-12-25T06:50:30.007Z,16.90
2018-12-25T06:53:00.500Z,14.77
2018-12-25T06:58:46.413Z,15.93
2018-12-25T07:01:17.487Z,16.80
2018-12-25T07:03:48.880Z,21.57
2018-12-25T07:06:38.743Z,15.00
2018-12-25T07:09:10.834Z,22.05
2018-12-25T07:12:00.424Z,19.20
2018-12-25T07:14:50.499Z,14.90
2018-12-25T07:20:24.544Z,15.23
2018-12-25T07:23:07.535Z,17.32
2018-12-25T07:28:26.457Z,15.40
2018-12-25T07:30:58.507Z,13.23
2018-12-25T07:33:29.111Z,15.70
2018-12-25T07:36:20.314Z,16.33
2018-12-25T07:41:49.853Z,18.80
2018-12-25T07:47:04.146Z,15.65
2018-12-25T07:49:36.195Z,19.07
2018-12-25T07:52:08.304Z,19.42
2018-12-25T07:54:58.168Z,15.40
2018-12-25T07:57:41.505Z,14.87
2018-12-25T08:00:13.879Z,15.27
2018-12-25T08:03:04.969Z,21.20
2018-12-25T08:05:47.693Z,19.10
2018-12-25T08:08:18.191Z,21.73
2018-12-25T08:10:48.663Z,14.43
2018-12-25T08:13:19.266Z,13.43
2018-12-25T08:15:50.334Z,16.20
2018-12-25T08:18:21.436Z,19.93
2018-12-25T08:20:52.029Z,17.67
2018-12-25T08:23:24.018Z,14.37
2018-12-25T08:26:13.697Z,14.53
2018-12-25T08:28:56.852Z,22.17
2018-12-25T08:31:27.518Z,18.63
2018-12-25T08:34:19.080Z,14.47
2018-12-25T08:36:50.526Z,12.97
2018-12-25T08:39:22.873Z,9.43
2018-12-25T08:41:53.385Z,14.80
2018-12-25T08:44:25.467Z,15.83
2018-12-25T08:46:56.160Z,15.87
2018-12-25T08:49:46.243Z,16.87
2018-12-25T08:52:16.732Z,12.90
2018-12-25T08:55:06.307Z,14.60
2018-12-25T08:57:36.787Z,14.33
2018-12-25T09:00:28.142Z,17.67
2018-12-25T09:03:17.807Z,11.37
2018-12-25T09:06:01.205Z,13.97
2018-12-25T09:08:34.970Z,12.80
2018-12-25T09:11:42.623Z,17.27
2018-12-25T09:14:24.639Z,10.93
2018-12-25T09:16:56.250Z,15.07
2018-12-25T09:19:49.056Z,16.00
2018-12-25T09:22:19.905Z,11.57
2018-12-25T09:25:02.039Z,22.67
2018-12-25T09:27:32.882Z,15.67
2018-12-25T09:30:22.848Z,13.77
2018-12-25T09:32:53.370Z,17.00
2018-12-25T09:35:43.359Z,15.80
2018-12-25T09:40:57.159Z,11.87
2018-12-25T09:43:27.670Z,12.17
2018-12-25T09:45:58.326Z,9.67
2018-12-25T09:48:48.029Z,10.63
2018-12-25T09:51:20.116Z,11.63
2018-12-25T09:56:53.942Z,13.47
2018-12-25T09:59:24.435Z,12.40
2018-12-25T10:01:56.839Z,13.33
2018-12-25T10:04:46.394Z,11.30
2018-12-25T10:07:16.910Z,12.67
2018-12-25T10:09:49.144Z,13.40
2018-12-25T10:12:31.483Z,9.00
2018-12-25T10:15:14.036Z,8.83
2018-12-25T10:17:56.383Z,15.60
2018-12-25T10:20:28.229Z,9.07
2018-12-25T10:23:18.375Z,13.73
2018-12-25T10:25:49.869Z,10.03
2018-12-25T10:31:26.558Z,13.10
2018-12-25T10:33:57.978Z,14.80
2018-12-25T10:36:30.002Z,9.67
2018-12-25T10:39:14.508Z,8.43
2018-12-25T10:41:57.299Z,13.27
2018-12-25T10:44:39.979Z,8.13
2018-12-25T10:47:31.897Z,12.07
2018-12-25T10:50:23.222Z,9.67
2018-12-25T10:52:53.771Z,10.13
2018-12-25T10:55:24.347Z,9.23
2018-12-25T10:58:13.929Z,11.93
2018-12-25T11:00:49.775Z,12.10
2018-12-25T11:03:20.271Z,8.77
2018-12-25T11:05:50.683Z,10.07
2018-12-25T11:08:42.013Z,9.33
2018-12-25T11:11:12.842Z,11.60
2018-12-25T11:14:02.432Z,11.57
2018-12-25T11:16:52.063Z,10.50
2018-12-25T11:19:34.575Z,9.23
2018-12-25T11:22:05.809Z,7.73
2018-12-25T11:24:36.355Z,8.40
2018-12-25T11:27:07.011Z,12.93
2018-12-25T11:29:56.811Z,10.53
2018-12-25T11:32:40.511Z,10.70
2018-12-25T11:35:22.820Z,11.63
2018-12-25T11:38:05.275Z,9.90
2018-12-25T11:40:35.987Z,9.43
2018-12-25T11:43:25.589Z,11.03
2018-12-25T11:45:56.694Z,10.82
2018-12-25T11:48:28.766Z,11.17
2018-12-25T11:51:37.855Z,6.63
2018-12-25T11:57:06.411Z,9.77
2018-12-25T12:02:34.339Z,9.13
2018-12-25T12:05:24.100Z,13.37
2018-12-25T12:08:13.615Z,8.30
2018-12-25T12:11:03.816Z,10.10
2018-12-25T12:13:48.015Z,10.83
2018-12-25T12:16:30.204Z,9.40
2018-12-25T12:19:00.720Z,9.77
2018-12-25T12:21:31.236Z,11.77
2018-12-25T12:24:20.823Z,11.90
2018-12-25T12:26:51.480Z,8.33
2018-12-25T12:29:42.790Z,9.43
2018-12-25T12:32:26.496Z,11.93
2018-12-25T12:34:57.191Z,11.33
2018-12-25T12:37:29.274Z,10.30
2018-12-25T12:40:16.425Z,11.10
2018-12-25T12:42:46.970Z,11.57
2018-12-25T12:45:36.650Z,8.83
2018-12-25T12:48:27.799Z,8.83
2018-12-25T12:50:58.446Z,15.57
2018-12-25T12:53:49.712Z,8.60
2018-12-25T12:56:33.283Z,9.23
2018-12-25T12:59:15.669Z,11.50
2018-12-25T13:01:46.195Z,9.33
2018-12-25T13:04:18.288Z,11.47
2018-12-25T13:06:50.366Z,9.33
2018-12-25T13:09:40.434Z,15.77
2018-12-25T13:12:10.998Z,9.87
2018-12-25T13:15:00.673Z,13.37
2018-12-25T13:17:32.762Z,9.77
2018-12-25T13:20:03.167Z,9.80
2018-12-25T13:22:54.155Z,12.73
2018-12-25T13:26:03.392Z,6.23
2018-12-25T13:28:53.281Z,11.53
2018-12-25T13:31:23.995Z,11.80
2018-12-25T13:34:13.587Z,11.50
2018-12-25T13:36:44.071Z,15.90
2018-12-25T13:39:14.573Z,11.60
2018-12-25T13:41:45.097Z,8.77
2018-12-25T13:44:34.855Z,9.83
2018-12-25T13:47:24.419Z,12.33
2018-12-25T13:49:57.403Z,14.73
2018-12-25T13:52:28.095Z,12.73
2018-12-25T13:55:17.902Z,15.07
2018-12-25T13:57:50.159Z,9.40
2018-12-25T14:00:39.961Z,11.03
2018-12-25T14:03:10.979Z,12.00
2018-12-25T14:06:00.555Z,9.93
2018-12-25T14:08:43.125Z,10.87
2018-12-25T14:11:26.755Z,10.37
2018-12-25T14:14:09.885Z,14.13
2018-12-25T14:16:52.735Z,10.20
2018-12-25T14:19:23.247Z,13.47
2018-12-25T14:22:12.814Z,13.43
2018-12-25T14:24:55.249Z,14.63
2018-12-25T14:27:25.847Z,14.80
2018-12-25T14:29:57.431Z,13.30
2018-12-25T14:32:28.179Z,16.07
2018-12-25T14:35:19.305Z,12.63
2018-12-25T14:38:01.617Z,10.57
2018-12-25T14:40:43.475Z,9.87
2018-12-25T14:43:26.037Z,11.83
2018-12-25T14:46:06.803Z,15.03
2018-12-25T14:48:49.499Z,15.60
2018-12-25T14:51:31.455Z,12.73
2018-12-25T14:54:03.514Z,15.43
2018-12-25T14:56:35.590Z,17.17
2018-12-25T14:59:06.093Z,12.97
2018-12-25T15:01:55.713Z,13.27
2018-12-25T15:04:45.393Z,17.10
2018-12-25T15:07:15.883Z,13.40
2018-12-25T15:09:46.496Z,13.63
2018-12-25T15:12:16.963Z,14.43
2018-12-25T15:15:06.745Z,18.43
2018-12-25T15:17:57.889Z,14.97
2018-12-25T15:20:29.895Z,11.20
2018-12-25T15:23:27.892Z,16.43
2018-12-25T15:26:10.967Z,15.48
2018-12-25T15:28:41.934Z,21.53
2018-12-25T15:31:14.038Z,14.63
2018-12-25T15:36:27.798Z,15.60
2018-12-25T15:39:18.927Z,16.90
2018-12-25T15:41:49.466Z,19.17
2018-12-25T15:44:38.472Z,13.47
2018-12-25T15:47:08.870Z,17.43
2018-12-25T15:49:41.231Z,20.07
2018-12-25T15:52:13.297Z,15.98
2018-12-25T15:57:24.647Z,17.70
2018-12-25T15:59:55.223Z,14.50
2018-12-25T16:02:27.283Z,17.60
2018-12-25T16:05:16.891Z,16.63
2018-12-25T16:08:08.035Z,13.47
2018-12-25T16:10:51.371Z,27.10
2018-12-25T16:13:34.071Z,20.53
2018-12-25T16:16:16.194Z,20.43
2018-12-25T16:18:58.616Z,16.10
2018-12-25T16:21:40.415Z,20.87
2018-12-25T16:24:27.438Z,13.85
2018-12-25T16:29:51.965Z,20.23
2018-12-25T16:32:22.751Z,19.33
2018-12-25T16:35:12.429Z,18.87
2018-12-25T16:37:54.979Z,17.97
2018-12-25T16:40:38.236Z,25.07
2018-12-25T16:43:20.496Z,18.57
2018-12-25T16:45:51.915Z,16.43
2018-12-25T16:48:24.135Z,20.13
2018-12-25T16:51:06.839Z,19.60
2018-12-25T16:53:37.446Z,19.83
2018-12-25T16:56:27.023Z,22.47
2018-12-25T16:58:57.782Z,19.20
2018-12-25T17:01:28.312Z,22.30
2018-12-25T17:04:17.931Z,27.03
2018-12-25T17:07:07.579Z,16.00
2018-12-25T17:09:51.816Z,20.97
2018-12-25T17:12:33.968Z,20.10
2018-12-25T17:15:16.247Z,16.40
2018-12-25T17:17:58.758Z,19.47
2018-12-25T17:20:40.535Z,22.00
2018-12-25T17:23:22.415Z,15.28
2018-12-25T17:26:04.405Z,25.63
2018-12-25T17:28:46.902Z,20.80
2018-12-25T17:31:29.178Z,22.00
2018-12-25T17:33:59.691Z,15.93
2018-12-25T17:36:50.837Z,28.17
2018-12-25T17:39:40.546Z,19.97
2018-12-25T17:42:30.135Z,23.77
2018-12-25T17:45:12.635Z,22.50
2018-12-25T17:47:55.451Z,18.73
2018-12-25T17:50:37.633Z,20.75
2018-12-25T17:53:19.740Z,20.67
2018-12-25T17:56:03.888Z,17.40
2018-12-25T17:58:45.871Z,28.43
2018-12-25T18:01:28.416Z,18.67
2018-12-25T18:04:12.200Z,22.10
2018-12-25T18:06:55.002Z,18.37
2018-12-25T18:09:36.921Z,24.40
2018-12-25T18:12:19.267Z,18.27
2018-12-25T18:15:08.973Z,19.50
2018-12-25T18:17:51.324Z,22.60
2018-12-25T18:20:21.895Z,20.37
2018-12-25T18:22:52.347Z,22.13
2018-12-25T18:25:24.415Z,21.93
2018-12-25T18:28:13.990Z,24.30
2018-12-25T18:33:59.335Z,18.83
2018-12-25T18:36:42.775Z,17.40
2018-12-25T18:39:25.131Z,14.90
2018-12-25T18:42:07.689Z,18.00
2018-12-25T18:44:49.595Z,26.90
2018-12-25T18:47:31.774Z,17.63
2018-12-25T18:50:14.492Z,18.63
2018-12-25T18:52:56.891Z,19.80
2018-12-25T18:55:40.380Z,21.83
2018-12-25T18:58:27.676Z,14.77
2018-12-25T19:01:09.823Z,17.43
2018-12-25T19:03:40.942Z,20.80
2018-12-25T19:06:30.533Z,18.57
2018-12-25T19:09:14.543Z,14.27
2018-12-25T19:12:00.117Z,14.90
2018-12-25T19:14:42.547Z,20.73
2018-12-25T19:17:13.207Z,24.17
2018-12-25T19:20:04.356Z,14.80
2018-12-25T19:22:46.624Z,20.47
2018-12-25T19:25:17.248Z,22.40
2018-12-25T19:28:07.119Z,15.93
2018-12-25T19:30:49.377Z,17.10
2018-12-25T19:33:41.843Z,13.03
2018-12-25T19:36:31.797Z,19.57
2018-12-25T19:39:13.903Z,17.77
2018-12-25T19:41:44.428Z,15.53
2018-12-25T19:44:34.097Z,19.23
2018-12-25T19:47:16.544Z,17.30
2018-12-25T19:49:47.266Z,18.23
2018-12-25T19:52:36.827Z,21.37
2018-12-25T19:55:07.614Z,17.42
2018-12-25T19:57:38.264Z,17.83
2018-12-25T20:00:10.690Z,18.62
2018-12-25T20:02:45.596Z,16.57
2018-12-25T20:05:54.250Z,18.73
2018-12-25T20:08:36.958Z,16.87
2018-12-25T20:11:19.215Z,24.10
2018-12-25T20:14:01.275Z,15.97
2018-12-25T20:17:18.799Z,12.80
2018-12-25T20:20:17.098Z,13.23
2018-12-25T20:23:09.449Z,9.97
2018-12-25T20:26:05.656Z,23.03
2018-12-25T20:29:01.427Z,18.97
2018-12-25T20:43:44.310Z,19.63
2018-12-25T20:46:26.547Z,23.90
2018-12-25T20:49:37.804Z,17.13
2018-12-25T20:52:46.120Z,19.70
2018-12-25T20:55:30.463Z,18.90
2018-12-25T20:58:40.339Z,16.47
2018-12-25T21:01:56.243Z,18.30
2018-12-25T21:05:05.334Z,24.20
2018-12-25T21:08:14.795Z,22.23
2018-12-25T21:10:57.180Z,14.37
2018-12-25T21:14:10.484Z,18.37
2018-12-25T21:19:55.064Z,20.33
2018-12-25T21:23:05.004Z,17.80
2018-12-25T21:26:19.942Z,14.83
2018-12-25T21:28:50.567Z,15.07
2018-12-25T21:31:21.364Z,17.63
2018-12-25T21:33:51.881Z,14.70
2018-12-25T21:36:42.915Z,21.33
2018-12-25T21:39:24.987Z,25.00
2018-12-25T21:42:08.033Z,13.20
2018-12-25T21:44:39.158Z,15.97
2018-12-25T21:47:11.247Z,16.97
2018-12-25T21:49:54.543Z,17.37
2018-12-25T21:52:38.337Z,19.50
2018-12-25T21:55:18.288Z,23.40
2018-12-25T21:58:21.257Z,17.70
2018-12-25T22:00:52.059Z,19.83
2018-12-25T22:03:41.663Z,18.93
2018-12-25T22:09:32.340Z,17.00
2018-12-25T22:12:02.846Z,18.62
2018-12-25T22:14:52.507Z,13.40
2018-12-25T22:17:34.696Z,15.60
2018-12-25T22:20:27.155Z,15.50
2018-12-25T22:22:58.599Z,19.53
2018-12-25T22:25:29.130Z,26.07
2018-12-25T22:31:32.157Z,19.13
2018-12-25T22:34:14.672Z,18.87
2018-12-25T22:36:45.197Z,21.10
2018-12-25T22:39:16.084Z,19.83
2018-12-25T22:44:55.160Z,19.33
2018-12-25T22:47:44.712Z,13.43
2018-12-25T22:50:26.498Z,17.45
2018-12-25T22:53:08.421Z,16.73
2018-12-25T22:55:39.053Z,17.07
2018-12-25T22:58:09.536Z,19.17
2018-12-25T23:00:41.587Z,17.27
2018-12-25T23:03:31.895Z,18.27
2018-12-25T23:06:21.484Z,16.70
2018-12-25T23:08:53.994Z,21.83
2018-12-25T23:11:24.681Z,18.77
2018-12-25T23:13:55.146Z,24.37
2018-12-25T23:16:45.599Z,18.50
2018-12-25T23:19:27.871Z,29.77
2018-12-25T23:21:58.771Z,21.33
2018-12-25T23:24:48.359Z,32.43
2018-12-25T23:27:20.406Z,20.70
2018-12-25T23:30:02.248Z,21.87
2018-12-25T23:35:41.687Z,27.73
2018-12-25T23:41:06.960Z,17.60
2018-12-25T23:43:37.521Z,24.60
2018-12-25T23:46:27.289Z,19.23
2018-12-25T23:49:10.285Z,26.97
2018-12-25T23:51:52.771Z,20.23
2018-12-25T23:57:23.868Z,18.97
